createdAt,value
2023-01-18T00:04:18.729Z,11.67
2023-01-18T00:09:23.522Z,10.03
2023-01-18T00:14:28.372Z,9.03
2023-01-18T00:19:36.567Z,13.70
2023-01-18T00:24:41.578Z,8.83
2023-01-18T00:29:46.501Z,8.73
2023-01-18T00:34:54.035Z,7.90
2023-01-18T00:40:01.034Z,5.23
2023-01-18T00:45:06.134Z,5.33
2023-01-18T00:50:14.720Z,4.73
2023-01-18T00:55:21.024Z,5.33
2023-01-18T01:00:27.210Z,5.40
2023-01-18T01:05:47.157Z,5.00
2023-01-18T01:10:53.852Z,5.37
2023-01-18T01:16:12.730Z,5.40
2023-01-18T01:21:32.815Z,5.53
2023-01-18T01:26:37.871Z,5.90
2023-01-18T01:31:42.764Z,5.40
2023-01-18T01:36:52.232Z,5.67
2023-01-18T01:41:57.281Z,5.63
2023-01-18T01:47:05.946Z,5.37
2023-01-18T01:52:16.333Z,5.60
2023-01-18T01:57:24.427Z,5.47
2023-01-18T02:02:29.989Z,6.67
2023-01-18T02:07:39.986Z,6.50
2023-01-18T02:12:47.736Z,5.27
2023-01-18T02:18:17.996Z,5.23
2023-01-18T02:23:35.421Z,5.27
2023-01-18T02:28:47.081Z,5.07
2023-01-18T02:34:01.752Z,5.40
2023-01-18T02:39:13.458Z,5.57
2023-01-18T02:44:39.580Z,6.03
2023-01-18T02:49:44.963Z,6.23
2023-01-18T02:54:50.014Z,6.30
2023-01-18T02:59:59.559Z,6.77
2023-01-18T03:05:05.444Z,6.30
2023-01-18T03:10:14.691Z,7.17
2023-01-18T03:15:31.608Z,7.60
2023-01-18T03:20:43.604Z,7.47
2023-01-18T03:25:53.809Z,8.33
2023-01-18T03:31:16.443Z,8.20
2023-01-18T03:36:24.999Z,9.00
2023-01-18T03:41:33.793Z,8.67
2023-01-18T03:46:43.962Z,9.30
2023-01-18T03:51:58.264Z,9.37
2023-01-18T03:57:07.582Z,9.63
2023-01-18T04:02:15.260Z,9.13
2023-01-18T04:07:20.127Z,10.63
2023-01-18T04:12:25.642Z,9.83
2023-01-18T04:17:34.652Z,10.73
2023-01-18T04:22:39.678Z,10.97
2023-01-18T04:27:44.909Z,11.87
2023-01-18T04:32:52.639Z,12.87
2023-01-18T04:37:57.513Z,13.50
2023-01-18T04:43:02.391Z,13.57
2023-01-18T04:48:15.753Z,14.10
2023-01-18T04:53:21.179Z,12.73
2023-01-18T04:58:26.148Z,14.50
2023-01-18T05:03:38.208Z,12.90
2023-01-18T05:08:43.872Z,13.70
2023-01-18T05:13:53.349Z,12.13
2023-01-18T05:19:01.764Z,9.47
2023-01-18T05:24:07.745Z,9.10
2023-01-18T05:29:13.260Z,7.17
2023-01-18T05:34:21.031Z,7.33
2023-01-18T05:39:26.740Z,8.80
2023-01-18T05:44:32.890Z,8.53
2023-01-18T05:49:41.934Z,8.50
2023-01-18T05:54:47.090Z,8.73
2023-01-18T05:59:52.039Z,8.73
2023-01-18T06:04:59.598Z,8.03
2023-01-18T06:10:04.452Z,7.80
2023-01-18T06:15:11.438Z,7.27
2023-01-18T06:20:20.033Z,6.90
2023-01-18T06:25:25.251Z,6.80
2023-01-18T06:30:35.859Z,7.40
2023-01-18T06:35:44.471Z,7.23
2023-01-18T06:40:50.810Z,8.60
2023-01-18T06:46:08.933Z,8.37
2023-01-18T06:51:17.435Z,9.10
2023-01-18T06:56:23.503Z,12.13
2023-01-18T07:01:28.931Z,9.93
2023-01-18T07:06:39.308Z,10.40
2023-01-18T07:11:47.116Z,10.73
2023-01-18T07:16:52.222Z,10.37
2023-01-18T07:22:00.930Z,10.57
2023-01-18T07:27:10.707Z,12.60
2023-01-18T07:32:16.439Z,11.70
2023-01-18T07:37:24.284Z,10.50
2023-01-18T07:42:32.118Z,11.47
2023-01-18T07:47:40.550Z,11.23
2023-01-18T07:52:58.700Z,12.77
2023-01-18T07:58:05.950Z,12.47
2023-01-18T08:03:18.520Z,12.93
2023-01-18T08:08:27.813Z,14.73
2023-01-18T08:13:32.916Z,13.90
2023-01-18T08:18:45.414Z,12.23
2023-01-18T08:23:56.453Z,12.87
2023-01-18T08:29:02.358Z,12.87
2023-01-18T08:34:07.322Z,15.27
2023-01-18T08:39:18.337Z,15.00
2023-01-18T08:44:25.678Z,13.70
2023-01-18T08:49:33.737Z,13.17
2023-01-18T08:54:42.741Z,14.00
2023-01-18T08:59:48.151Z,16.60
2023-01-18T09:04:53.926Z,13.20
2023-01-18T09:10:01.675Z,16.40
2023-01-18T09:15:07.705Z,16.90
2023-01-18T09:20:18.752Z,15.73
2023-01-18T09:25:29.638Z,14.67
2023-01-18T09:30:36.011Z,18.27
2023-01-18T09:35:42.975Z,14.30
2023-01-18T09:40:52.743Z,14.13
2023-01-18T09:45:59.881Z,14.93
2023-01-18T09:51:14.527Z,14.27
2023-01-18T09:56:31.345Z,13.80
2023-01-18T10:01:38.449Z,14.87
2023-01-18T10:06:49.494Z,14.27
2023-01-18T10:12:02.402Z,14.63
2023-01-18T10:17:14.463Z,13.70
2023-01-18T10:22:25.192Z,13.57
2023-01-18T10:27:55.444Z,14.07
2023-01-18T10:33:03.104Z,15.57
2023-01-18T10:38:12.115Z,14.30
2023-01-18T10:43:22.145Z,14.53
2023-01-18T10:48:30.504Z,14.50
2023-01-18T10:53:37.236Z,13.43
2023-01-18T10:58:48.453Z,12.67
2023-01-18T11:03:56.471Z,13.53
2023-01-18T11:09:02.146Z,13.47
2023-01-18T11:14:26.289Z,14.37
2023-01-18T11:19:31.542Z,14.63
2023-01-18T11:24:37.894Z,15.07
2023-01-18T11:29:48.426Z,15.33
2023-01-18T11:34:55.419Z,15.67
2023-01-18T11:40:00.549Z,15.50
2023-01-18T11:45:24.678Z,14.70
2023-01-18T11:50:38.382Z,16.13
2023-01-18T11:55:56.169Z,14.03
2023-01-18T12:01:23.876Z,15.77
2023-01-18T12:06:42.982Z,16.40
2023-01-18T12:12:18.133Z,15.70
2023-01-18T12:17:40.190Z,15.13
2023-01-18T12:23:12.007Z,15.07
2023-01-18T12:28:32.558Z,15.53
2023-01-18T12:33:52.328Z,17.37
2023-01-18T12:39:00.008Z,14.90
2023-01-18T12:44:28.844Z,15.67
2023-01-18T12:49:42.321Z,14.87
2023-01-18T12:54:50.978Z,14.30
2023-01-18T13:00:10.769Z,13.47
2023-01-18T13:05:23.914Z,15.37
2023-01-18T13:10:30.849Z,13.53
2023-01-18T13:15:44.004Z,15.30
2023-01-18T13:21:06.794Z,15.47
2023-01-18T13:26:31.556Z,16.30
2023-01-18T13:31:41.675Z,16.43
2023-01-18T13:36:50.403Z,16.17
2023-01-18T13:42:25.460Z,17.70
2023-01-18T13:47:49.487Z,17.93
2023-01-18T13:53:19.089Z,18.77
2023-01-18T13:58:30.239Z,18.53
2023-01-18T14:03:38.534Z,19.67
2023-01-18T14:08:57.279Z,18.43
2023-01-18T14:14:08.399Z,18.63
2023-01-18T14:19:20.223Z,19.73
2023-01-18T14:25:00.529Z,19.30
2023-01-18T14:30:16.406Z,19.70
2023-01-18T14:35:26.066Z,17.87
2023-01-18T14:40:33.973Z,18.50
2023-01-18T14:45:49.519Z,16.53
2023-01-18T14:50:59.140Z,16.43
2023-01-18T14:56:06.340Z,17.87
2023-01-18T15:01:28.341Z,18.23
2023-01-18T15:06:44.573Z,19.57
2023-01-18T15:11:50.722Z,18.53
2023-01-18T15:17:01.087Z,17.83
2023-01-18T15:22:08.584Z,18.70
2023-01-18T15:27:15.775Z,18.83
2023-01-18T15:32:25.855Z,17.87
2023-01-18T15:37:33.773Z,14.70
2023-01-18T15:42:42.788Z,15.53
2023-01-18T15:47:54.923Z,15.80
2023-01-18T15:53:06.334Z,16.07
2023-01-18T15:58:16.035Z,15.10
2023-01-18T16:03:26.681Z,14.67
2023-01-18T16:08:31.660Z,14.33
2023-01-18T16:13:39.363Z,14.90
2023-01-18T16:18:50.939Z,14.57
2023-01-18T16:23:57.264Z,14.40
2023-01-18T16:29:14.609Z,16.03
2023-01-18T16:34:26.232Z,15.17
2023-01-18T16:39:31.108Z,15.77
2023-01-18T16:44:36.489Z,16.87
2023-01-18T16:49:44.275Z,14.10
2023-01-18T16:54:49.263Z,14.80
2023-01-18T16:59:54.321Z,14.27
2023-01-18T17:05:04.099Z,14.63
2023-01-18T17:10:22.001Z,14.13
2023-01-18T17:15:28.348Z,14.40
2023-01-18T17:20:36.229Z,12.60
2023-01-18T17:25:45.508Z,10.90
2023-01-18T17:30:52.509Z,10.77
2023-01-18T17:36:00.117Z,10.77
2023-01-18T17:41:07.108Z,9.70
2023-01-18T17:46:13.926Z,9.77
2023-01-18T17:51:21.507Z,8.07
2023-01-18T17:56:26.513Z,9.83
2023-01-18T18:01:31.808Z,9.33
2023-01-18T18:06:46.051Z,7.57
2023-01-18T18:11:54.633Z,7.67
2023-01-18T18:16:59.535Z,7.77
2023-01-18T18:22:07.095Z,6.10
2023-01-18T18:27:12.327Z,6.70
2023-01-18T18:32:17.578Z,7.30
2023-01-18T18:37:25.084Z,9.43
2023-01-18T18:42:29.984Z,8.13
2023-01-18T18:47:35.573Z,8.37
2023-01-18T18:52:43.204Z,9.23
2023-01-18T18:57:48.288Z,7.60
2023-01-18T19:02:53.643Z,8.03
2023-01-18T19:08:02.321Z,7.47
2023-01-18T19:13:07.511Z,7.13
2023-01-18T19:18:14.673Z,5.80
2023-01-18T19:23:22.437Z,6.10
2023-01-18T19:28:27.385Z,6.87
2023-01-18T19:33:32.470Z,6.60
2023-01-18T19:38:45.775Z,5.83
2023-01-18T19:43:52.103Z,6.40
2023-01-18T19:49:00.547Z,6.17
2023-01-18T19:54:10.125Z,7.27
2023-01-18T19:59:15.576Z,6.40
2023-01-18T20:04:20.776Z,5.57
2023-01-18T20:09:42.159Z,7.17
2023-01-18T20:14:48.751Z,6.93
2023-01-18T20:19:54.936Z,6.00
2023-01-18T20:25:02.812Z,5.73
2023-01-18T20:30:09.378Z,6.03
2023-01-18T20:35:14.401Z,6.27
2023-01-18T20:40:24.094Z,5.60
2023-01-18T20:45:29.071Z,5.80
2023-01-18T20:50:34.014Z,6.50
2023-01-18T20:55:42.030Z,6.63
2023-01-18T21:00:47.139Z,7.13
2023-01-18T21:05:52.045Z,6.77
2023-01-18T21:10:59.481Z,8.23
2023-01-18T21:16:04.395Z,7.43
2023-01-18T21:21:11.597Z,6.67
2023-01-18T21:26:19.224Z,8.00
2023-01-18T21:31:24.674Z,8.37
2023-01-18T21:36:29.717Z,7.93
2023-01-18T21:41:49.609Z,8.27
2023-01-18T21:46:55.252Z,7.83
2023-01-18T21:52:12.571Z,7.97
2023-01-18T21:57:20.148Z,10.53
2023-01-18T22:02:25.103Z,8.23
2023-01-18T22:07:30.918Z,7.53
2023-01-18T22:12:39.242Z,8.23
2023-01-18T22:17:44.145Z,8.83
2023-01-18T22:22:49.574Z,8.63
2023-01-18T22:27:57.133Z,8.43
2023-01-18T22:33:02.156Z,9.53
2023-01-18T22:38:07.267Z,9.80
2023-01-18T22:43:14.742Z,9.57
2023-01-18T22:48:19.844Z,9.83
2023-01-18T22:53:25.627Z,10.27
2023-01-18T22:58:33.447Z,9.80
2023-01-18T23:03:38.434Z,11.23
2023-01-18T23:08:45.933Z,10.80
2023-01-18T23:14:08.722Z,12.97
2023-01-18T23:19:13.569Z,11.23
2023-01-18T23:24:18.574Z,12.30
2023-01-18T23:29:26.334Z,11.47
2023-01-18T23:34:31.600Z,12.00
2023-01-18T23:39:48.979Z,11.23
2023-01-18T23:45:09.029Z,10.63
2023-01-18T23:50:26.545Z,12.63
2023-01-18T23:55:31.379Z,13.10
